Jessica S. Settoon — WDD9545 — position and weather

sailwx.info

Track history (hours):
 
Tides and Currents Weather Stations Pressure Air Temp Water Temp Dewpoint Dewpoint Depression Visibility Wind Speed Wind Dir Waves Ship Positions

Jessica S. Settoon

Owner: Settoon Towing LLC, Houma, LA. More information available from US FCC via Universal Licensing System and Coast Guard Vessel Documentation Center.

Last reported at 2016-May-03 11:26 UTC. Time now 2016-May-04 07:55 UTC.
Position N 29°22' W 090°44'.

Length 17 m; draft 3 m.

Type: Tug. MMSI: 367312940.

Date/timePositionNaut miles runAvg speedWind from/ knotsBaromVisibWave heightAir tempDewpointWater temp
2016-May-03 11:26N 29°22' W 090°44'7 7.8
2016-May-03 10:33N 29°29' W 090°43'6 5.8
2016-May-03 09:33N 29°35' W 090°43'0 0.1
2016-May-03 08:33N 29°35' W 090°43'6 6.2
2016-May-03 07:32N 29°32' W 090°50'  
2016-Apr-30 23:30N 29°34' W 090°56'6 6.6
2016-Apr-30 22:33N 29°32' W 090°49'6 5.8
2016-Apr-30 21:33N 29°34' W 090°43'6 5.7
2016-Apr-30 20:33N 29°28' W 090°43'6 0.5
2016-Apr-30 09:19N 29°25' W 090°49'5 4.9
2016-Apr-30 08:24N 29°24' W 090°44'6 6.8
2016-Apr-30 07:33N 29°30' W 090°43'6 6.4
2016-Apr-30 06:33N 29°36' W 090°43'6 5.6
2016-Apr-30 05:33N 29°35' W 090°36'  
2016-Apr-27 20:33N 29°26' W 090°43'7 6.8
2016-Apr-27 19:33N 29°32' W 090°42'2 2.5
2016-Apr-27 18:33N 29°35' W 090°43'4 4.1
2016-Apr-27 17:33N 29°32' W 090°46'9 0.5
2016-Apr-27 01:10N 29°34' W 090°56'4 6.5
2016-Apr-27 00:31N 29°32' W 090°52'6 6.1
2016-Apr-26 23:33N 29°33' W 090°45'2 2.5
2016-Apr-26 22:33N 29°33' W 090°42'4 4.4
2016-Apr-26 21:33N 29°29' W 090°43'7 0.4
2016-Apr-26 05:29N 29°22' W 090°44'6 7.0
2016-Apr-26 04:33N 29°29' W 090°43'5 5.3
2016-Apr-26 03:33N 29°34' W 090°44'  
Track history (hours):
 
Tides and Currents Weather Stations Pressure Air Temp Water Temp Dewpoint Dewpoint Depression Visibility Wind Speed Wind Dir Waves Ship Positions

Jessica S. Settoon

Owner: Settoon Towing LLC, Houma, LA. More information available from US FCC via Universal Licensing System and Coast Guard Vessel Documentation Center.

Last reported at 2016-May-03 11:26 UTC. Time now 2016-May-04 07:55 UTC.
Position N 29°22' W 090°44'.

Length 17 m; draft 3 m.

Type: Tug. MMSI: 367312940.

Date/timePositionNaut miles runAvg speedWind from/ knotsBaromVisibWave heightAir tempDewpointWater temp
2016-May-03 11:26N 29°22' W 090°44'7 7.8
2016-May-03 10:33N 29°29' W 090°43'6 5.8
2016-May-03 09:33N 29°35' W 090°43'0 0.1
2016-May-03 08:33N 29°35' W 090°43'6 6.2
2016-May-03 07:32N 29°32' W 090°50'  
2016-Apr-30 23:30N 29°34' W 090°56'6 6.6
2016-Apr-30 22:33N 29°32' W 090°49'6 5.8
2016-Apr-30 21:33N 29°34' W 090°43'6 5.7
2016-Apr-30 20:33N 29°28' W 090°43'6 0.5
2016-Apr-30 09:19N 29°25' W 090°49'5 4.9
2016-Apr-30 08:24N 29°24' W 090°44'6 6.8
2016-Apr-30 07:33N 29°30' W 090°43'6 6.4
2016-Apr-30 06:33N 29°36' W 090°43'6 5.6
2016-Apr-30 05:33N 29°35' W 090°36'  
2016-Apr-27 20:33N 29°26' W 090°43'7 6.8
2016-Apr-27 19:33N 29°32' W 090°42'2 2.5
2016-Apr-27 18:33N 29°35' W 090°43'4 4.1
2016-Apr-27 17:33N 29°32' W 090°46'9 0.5
2016-Apr-27 01:10N 29°34' W 090°56'4 6.5
2016-Apr-27 00:31N 29°32' W 090°52'6 6.1
2016-Apr-26 23:33N 29°33' W 090°45'2 2.5
2016-Apr-26 22:33N 29°33' W 090°42'4 4.4
2016-Apr-26 21:33N 29°29' W 090°43'7 0.4
2016-Apr-26 05:29N 29°22' W 090°44'6 7.0
2016-Apr-26 04:33N 29°29' W 090°43'5 5.3
2016-Apr-26 03:33N 29°34' W 090°44'  

Dump ship's entire track history